sensor_id;sensor_type;location;lat;lon;timestamp;P1;durP1;ratioP1;P2;durP2;ratioP2
60436;SDS011;46289;51.992;4.498;2023-07-31T00:00:51;22.10;;;6.72;;
60436;SDS011;46289;51.992;4.498;2023-07-31T00:02:56;22.60;;;6.28;;
60436;SDS011;46289;51.992;4.498;2023-07-31T00:05:01;18.30;;;5.50;;
60436;SDS011;46289;51.992;4.498;2023-07-31T00:07:07;24.58;;;6.28;;
60436;SDS011;46289;51.992;4.498;2023-07-31T00:09:12;18.00;;;6.05;;
60436;SDS011;46289;51.992;4.498;2023-07-31T00:11:22;22.00;;;5.65;;
60436;SDS011;46289;51.992;4.498;2023-07-31T00:13:29;26.67;;;7.03;;
60436;SDS011;46289;51.992;4.498;2023-07-31T00:15:34;20.52;;;5.82;;
60436;SDS011;46289;51.992;4.498;2023-07-31T00:17:37;18.08;;;6.25;;
60436;SDS011;46289;51.992;4.498;2023-07-31T00:19:42;16.85;;;5.63;;
60436;SDS011;46289;51.992;4.498;2023-07-31T00:21:47;25.17;;;6.00;;
60436;SDS011;46289;51.992;4.498;2023-07-31T00:23:52;22.90;;;6.20;;
60436;SDS011;46289;51.992;4.498;2023-07-31T00:26:00;23.00;;;6.18;;
60436;SDS011;46289;51.992;4.498;2023-07-31T00:28:08;20.02;;;5.90;;
60436;SDS011;46289;51.992;4.498;2023-07-31T00:30:10;19.90;;;5.50;;
60436;SDS011;46289;51.992;4.498;2023-07-31T00:32:17;21.92;;;6.22;;
60436;SDS011;46289;51.992;4.498;2023-07-31T00:34:22;25.85;;;7.03;;
60436;SDS011;46289;51.992;4.498;2023-07-31T00:36:28;23.98;;;6.95;;
60436;SDS011;46289;51.992;4.498;2023-07-31T00:38:33;24.75;;;6.68;;
60436;SDS011;46289;51.992;4.498;2023-07-31T00:40:41;21.40;;;6.90;;
60436;SDS011;46289;51.992;4.498;2023-07-31T00:42:46;22.90;;;6.93;;
60436;SDS011;46289;51.992;4.498;2023-07-31T00:44:54;18.38;;;6.30;;
60436;SDS011;46289;51.992;4.498;2023-07-31T00:46:59;21.48;;;6.07;;
60436;SDS011;46289;51.992;4.498;2023-07-31T00:49:05;26.20;;;7.28;;
60436;SDS011;46289;51.992;4.498;2023-07-31T00:51:10;23.40;;;5.82;;
60436;SDS011;46289;51.992;4.498;2023-07-31T00:53:16;22.83;;;7.00;;
60436;SDS011;46289;51.992;4.498;2023-07-31T00:55:21;29.75;;;6.50;;
60436;SDS011;46289;51.992;4.498;2023-07-31T00:57:27;15.85;;;5.68;;
60436;SDS011;46289;51.992;4.498;2023-07-31T00:59:32;19.33;;;5.38;;
60436;SDS011;46289;51.992;4.498;2023-07-31T01:01:40;17.90;;;4.80;;
60436;SDS011;46289;51.992;4.498;2023-07-31T01:03:46;20.13;;;5.43;;
60436;SDS011;46289;51.992;4.498;2023-07-31T01:05:56;13.70;;;4.45;;
60436;SDS011;46289;51.992;4.498;2023-07-31T01:08:08;13.70;;;4.47;;
60436;SDS011;46289;51.992;4.498;2023-07-31T01:10:20;14.63;;;4.13;;
60436;SDS011;46289;51.992;4.498;2023-07-31T01:12:30;15.60;;;4.47;;
60436;SDS011;46289;51.992;4.498;2023-07-31T01:14:36;15.57;;;4.85;;
60436;SDS011;46289;51.992;4.498;2023-07-31T01:16:44;16.38;;;5.28;;
60436;SDS011;46289;51.992;4.498;2023-07-31T01:18:50;20.98;;;6.10;;
60436;SDS011;46289;51.992;4.498;2023-07-31T01:21:01;17.05;;;5.88;;
60436;SDS011;46289;51.992;4.498;2023-07-31T01:26:03;17.85;;;4.65;;
60436;SDS011;46289;51.992;4.498;2023-07-31T01:28:18;18.80;;;6.35;;
60436;SDS011;46289;51.992;4.498;2023-07-31T01:30:25;28.50;;;7.13;;
60436;SDS011;46289;51.992;4.498;2023-07-31T01:32:39;20.40;;;5.93;;
60436;SDS011;46289;51.992;4.498;2023-07-31T01:34:47;27.92;;;6.80;;
60436;SDS011;46289;51.992;4.498;2023-07-31T01:36:53;21.58;;;5.65;;
60436;SDS011;46289;51.992;4.498;2023-07-31T01:39:03;29.30;;;6.13;;
60436;SDS011;46289;51.992;4.498;2023-07-31T01:41:08;21.60;;;6.07;;
60436;SDS011;46289;51.992;4.498;2023-07-31T01:43:14;16.98;;;5.35;;
60436;SDS011;46289;51.992;4.498;2023-07-31T01:45:19;19.40;;;6.32;;
60436;SDS011;46289;51.992;4.498;2023-07-31T01:47:24;20.30;;;5.25;;
60436;SDS011;46289;51.992;4.498;2023-07-31T01:49:29;18.60;;;5.88;;
60436;SDS011;46289;51.992;4.498;2023-07-31T01:51:35;17.08;;;6.07;;
60436;SDS011;46289;51.992;4.498;2023-07-31T01:53:43;23.05;;;6.38;;
60436;SDS011;46289;51.992;4.498;2023-07-31T01:55:46;21.23;;;5.95;;
60436;SDS011;46289;51.992;4.498;2023-07-31T01:57:54;24.70;;;6.15;;
60436;SDS011;46289;51.992;4.498;2023-07-31T01:59:59;24.42;;;6.28;;
60436;SDS011;46289;51.992;4.498;2023-07-31T02:02:02;19.20;;;6.10;;
60436;SDS011;46289;51.992;4.498;2023-07-31T02:04:09;20.45;;;5.68;;
60436;SDS011;46289;51.992;4.498;2023-07-31T02:06:15;26.23;;;5.55;;
60436;SDS011;46289;51.992;4.498;2023-07-31T02:08:20;24.05;;;6.18;;
60436;SDS011;46289;51.992;4.498;2023-07-31T02:10:26;19.40;;;5.63;;
60436;SDS011;46289;51.992;4.498;2023-07-31T02:12:31;26.80;;;7.45;;
60436;SDS011;46289;51.992;4.498;2023-07-31T02:14:39;27.25;;;7.20;;
60436;SDS011;46289;51.992;4.498;2023-07-31T02:16:48;22.52;;;7.18;;
60436;SDS011;46289;51.992;4.498;2023-07-31T02:18:53;24.50;;;6.95;;
60436;SDS011;46289;51.992;4.498;2023-07-31T02:20:58;28.05;;;6.50;;
60436;SDS011;46289;51.992;4.498;2023-07-31T02:23:03;20.83;;;6.07;;
60436;SDS011;46289;51.992;4.498;2023-07-31T02:25:11;19.35;;;6.18;;
60436;SDS011;46289;51.992;4.498;2023-07-31T02:27:17;20.92;;;6.70;;
60436;SDS011;46289;51.992;4.498;2023-07-31T02:29:25;20.27;;;6.07;;
60436;SDS011;46289;51.992;4.498;2023-07-31T02:31:33;21.63;;;5.65;;
60436;SDS011;46289;51.992;4.498;2023-07-31T02:33:38;17.40;;;6.10;;
60436;SDS011;46289;51.992;4.498;2023-07-31T02:35:43;19.27;;;5.97;;
60436;SDS011;46289;51.992;4.498;2023-07-31T02:37:49;23.52;;;5.68;;
60436;SDS011;46289;51.992;4.498;2023-07-31T02:41:56;13.18;;;5.15;;
60436;SDS011;46289;51.992;4.498;2023-07-31T02:44:02;22.52;;;6.57;;
60436;SDS011;46289;51.992;4.498;2023-07-31T02:46:07;20.75;;;6.53;;
60436;SDS011;46289;51.992;4.498;2023-07-31T02:48:15;18.83;;;5.47;;
60436;SDS011;46289;51.992;4.498;2023-07-31T02:50:20;17.38;;;5.93;;
60436;SDS011;46289;51.992;4.498;2023-07-31T02:52:28;20.45;;;6.35;;
60436;SDS011;46289;51.992;4.498;2023-07-31T02:54:33;18.77;;;6.07;;
60436;SDS011;46289;51.992;4.498;2023-07-31T02:56:40;15.30;;;5.10;;
60436;SDS011;46289;51.992;4.498;2023-07-31T02:58:46;18.88;;;6.18;;
60436;SDS011;46289;51.992;4.498;2023-07-31T03:00:51;15.85;;;5.68;;
60436;SDS011;46289;51.992;4.498;2023-07-31T03:02:56;17.60;;;5.88;;
60436;SDS011;46289;51.992;4.498;2023-07-31T03:05:04;22.00;;;6.43;;
60436;SDS011;46289;51.992;4.498;2023-07-31T03:07:09;22.02;;;5.90;;
60436;SDS011;46289;51.992;4.498;2023-07-31T03:09:12;16.60;;;5.90;;
60436;SDS011;46289;51.992;4.498;2023-07-31T03:11:17;20.15;;;6.65;;
60436;SDS011;46289;51.992;4.498;2023-07-31T03:13:23;13.10;;;5.10;;
60436;SDS011;46289;51.992;4.498;2023-07-31T03:15:28;21.92;;;5.93;;
60436;SDS011;46289;51.992;4.498;2023-07-31T03:17:33;16.48;;;5.88;;
60436;SDS011;46289;51.992;4.498;2023-07-31T03:19:39;20.15;;;5.55;;
60436;SDS011;46289;51.992;4.498;2023-07-31T03:21:47;15.90;;;5.53;;
60436;SDS011;46289;51.992;4.498;2023-07-31T03:23:52;17.35;;;6.45;;
60436;SDS011;46289;51.992;4.498;2023-07-31T03:25:57;17.38;;;5.10;;
60436;SDS011;46289;51.992;4.498;2023-07-31T03:28:04;21.15;;;5.38;;
60436;SDS011;46289;51.992;4.498;2023-07-31T03:30:10;18.77;;;4.70;;
60436;SDS011;46289;51.992;4.498;2023-07-31T03:32:16;18.85;;;5.03;;
60436;SDS011;46289;51.992;4.498;2023-07-31T03:34:22;16.30;;;5.25;;
60436;SDS011;46289;51.992;4.498;2023-07-31T03:36:27;16.55;;;4.85;;
60436;SDS011;46289;51.992;4.498;2023-07-31T03:38:37;20.20;;;5.22;;
60436;SDS011;46289;51.992;4.498;2023-07-31T03:40:42;20.42;;;5.55;;
60436;SDS011;46289;51.992;4.498;2023-07-31T03:42:46;16.45;;;5.28;;
60436;SDS011;46289;51.992;4.498;2023-07-31T03:44:51;16.67;;;6.05;;
60436;SDS011;46289;51.992;4.498;2023-07-31T03:46:56;14.63;;;4.78;;
60436;SDS011;46289;51.992;4.498;2023-07-31T03:49:01;17.63;;;5.72;;
60436;SDS011;46289;51.992;4.498;2023-07-31T03:51:06;16.33;;;5.32;;
60436;SDS011;46289;51.992;4.498;2023-07-31T03:53:11;16.45;;;5.47;;
60436;SDS011;46289;51.992;4.498;2023-07-31T03:55:20;18.45;;;5.57;;
60436;SDS011;46289;51.992;4.498;2023-07-31T03:57:25;13.85;;;4.88;;
60436;SDS011;46289;51.992;4.498;2023-07-31T03:59:30;11.68;;;4.38;;
60436;SDS011;46289;51.992;4.498;2023-07-31T04:01:35;12.18;;;3.72;;
60436;SDS011;46289;51.992;4.498;2023-07-31T04:03:40;10.02;;;4.03;;
60436;SDS011;46289;51.992;4.498;2023-07-31T04:05:46;8.18;;;4.25;;
60436;SDS011;46289;51.992;4.498;2023-07-31T04:07:51;9.88;;;3.72;;
60436;SDS011;46289;51.992;4.498;2023-07-31T04:09:57;8.68;;;3.33;;
60436;SDS011;46289;51.992;4.498;2023-07-31T04:12:05;13.27;;;4.15;;
60436;SDS011;46289;51.992;4.498;2023-07-31T04:14:10;10.23;;;3.88;;
60436;SDS011;46289;51.992;4.498;2023-07-31T04:16:16;9.05;;;3.20;;
60436;SDS011;46289;51.992;4.498;2023-07-31T04:18:21;8.60;;;3.80;;
60436;SDS011;46289;51.992;4.498;2023-07-31T04:20:30;10.77;;;3.83;;
60436;SDS011;46289;51.992;4.498;2023-07-31T04:22:35;10.50;;;4.15;;
60436;SDS011;46289;51.992;4.498;2023-07-31T04:24:40;12.55;;;3.70;;
60436;SDS011;46289;51.992;4.498;2023-07-31T04:26:46;12.43;;;4.32;;
60436;SDS011;46289;51.992;4.498;2023-07-31T04:28:53;8.38;;;3.97;;
60436;SDS011;46289;51.992;4.498;2023-07-31T04:31:00;11.30;;;3.40;;
60436;SDS011;46289;51.992;4.498;2023-07-31T04:33:05;9.57;;;3.78;;
60436;SDS011;46289;51.992;4.498;2023-07-31T04:35:10;8.15;;;4.10;;
60436;SDS011;46289;51.992;4.498;2023-07-31T04:37:16;9.07;;;2.90;;
60436;SDS011;46289;51.992;4.498;2023-07-31T04:39:21;9.90;;;3.45;;
60436;SDS011;46289;51.992;4.498;2023-07-31T04:41:29;10.77;;;3.65;;
60436;SDS011;46289;51.992;4.498;2023-07-31T04:43:34;11.35;;;3.85;;
60436;SDS011;46289;51.992;4.498;2023-07-31T04:45:44;11.65;;;3.92;;
60436;SDS011;46289;51.992;4.498;2023-07-31T04:47:52;11.20;;;4.00;;
60436;SDS011;46289;51.992;4.498;2023-07-31T04:49:57;9.77;;;4.30;;
60436;SDS011;46289;51.992;4.498;2023-07-31T04:52:03;12.80;;;3.95;;
60436;SDS011;46289;51.992;4.498;2023-07-31T04:54:09;11.73;;;4.18;;
60436;SDS011;46289;51.992;4.498;2023-07-31T04:56:17;12.48;;;4.32;;
60436;SDS011;46289;51.992;4.498;2023-07-31T04:58:22;13.02;;;4.50;;
60436;SDS011;46289;51.992;4.498;2023-07-31T05:00:27;11.00;;;4.45;;
60436;SDS011;46289;51.992;4.498;2023-07-31T05:02:35;9.55;;;3.83;;
60436;SDS011;46289;51.992;4.498;2023-07-31T05:04:40;11.93;;;5.38;;
60436;SDS011;46289;51.992;4.498;2023-07-31T05:06:46;8.93;;;3.72;;
60436;SDS011;46289;51.992;4.498;2023-07-31T05:08:51;11.55;;;4.47;;
60436;SDS011;46289;51.992;4.498;2023-07-31T05:10:57;11.48;;;4.18;;
60436;SDS011;46289;51.992;4.498;2023-07-31T05:13:02;14.40;;;4.97;;
60436;SDS011;46289;51.992;4.498;2023-07-31T05:15:08;8.88;;;3.97;;
60436;SDS011;46289;51.992;4.498;2023-07-31T05:17:17;10.07;;;4.88;;
60436;SDS011;46289;51.992;4.498;2023-07-31T05:19:25;8.35;;;3.83;;
60436;SDS011;46289;51.992;4.498;2023-07-31T05:21:30;9.00;;;3.90;;
60436;SDS011;46289;51.992;4.498;2023-07-31T05:23:35;10.23;;;3.50;;
60436;SDS011;46289;51.992;4.498;2023-07-31T05:25:44;8.57;;;4.05;;
60436;SDS011;46289;51.992;4.498;2023-07-31T05:27:46;10.02;;;3.35;;
60436;SDS011;46289;51.992;4.498;2023-07-31T05:29:51;8.13;;;3.05;;
60436;SDS011;46289;51.992;4.498;2023-07-31T05:31:56;8.55;;;3.38;;
60436;SDS011;46289;51.992;4.498;2023-07-31T05:34:01;7.55;;;3.10;;
60436;SDS011;46289;51.992;4.498;2023-07-31T05:36:09;9.50;;;3.40;;
60436;SDS011;46289;51.992;4.498;2023-07-31T05:38:14;9.00;;;2.92;;
60436;SDS011;46289;51.992;4.498;2023-07-31T05:40:20;9.65;;;3.80;;
60436;SDS011;46289;51.992;4.498;2023-07-31T05:42:25;8.60;;;3.58;;
60436;SDS011;46289;51.992;4.498;2023-07-31T05:44:30;8.43;;;2.65;;
60436;SDS011;46289;51.992;4.498;2023-07-31T05:46:36;5.28;;;2.50;;
60436;SDS011;46289;51.992;4.498;2023-07-31T05:48:41;7.70;;;3.17;;
60436;SDS011;46289;51.992;4.498;2023-07-31T05:50:47;6.35;;;2.58;;
60436;SDS011;46289;51.992;4.498;2023-07-31T05:52:58;9.55;;;3.10;;
60436;SDS011;46289;51.992;4.498;2023-07-31T05:55:03;8.07;;;3.40;;
60436;SDS011;46289;51.992;4.498;2023-07-31T05:57:10;7.75;;;3.55;;
60436;SDS011;46289;51.992;4.498;2023-07-31T05:59:15;7.53;;;3.03;;
60436;SDS011;46289;51.992;4.498;2023-07-31T06:01:21;5.88;;;2.60;;
60436;SDS011;46289;51.992;4.498;2023-07-31T06:03:26;6.65;;;2.97;;
60436;SDS011;46289;51.992;4.498;2023-07-31T06:05:32;6.70;;;2.75;;
60436;SDS011;46289;51.992;4.498;2023-07-31T06:07:35;9.52;;;3.13;;
60436;SDS011;46289;51.992;4.498;2023-07-31T06:09:43;10.80;;;3.55;;
60436;SDS011;46289;51.992;4.498;2023-07-31T06:11:48;7.50;;;2.80;;
60436;SDS011;46289;51.992;4.498;2023-07-31T06:13:51;4.85;;;2.53;;
60436;SDS011;46289;51.992;4.498;2023-07-31T06:15:56;4.57;;;2.28;;
60436;SDS011;46289;51.992;4.498;2023-07-31T06:18:01;7.20;;;2.47;;
60436;SDS011;46289;51.992;4.498;2023-07-31T06:20:09;6.38;;;2.42;;
60436;SDS011;46289;51.992;4.498;2023-07-31T06:22:15;7.20;;;2.47;;
60436;SDS011;46289;51.992;4.498;2023-07-31T06:24:21;5.32;;;2.50;;
60436;SDS011;46289;51.992;4.498;2023-07-31T06:26:28;5.95;;;2.30;;
60436;SDS011;46289;51.992;4.498;2023-07-31T06:28:36;6.15;;;2.40;;
60436;SDS011;46289;51.992;4.498;2023-07-31T06:30:49;5.57;;;2.72;;
60436;SDS011;46289;51.992;4.498;2023-07-31T06:32:54;5.72;;;2.15;;
60436;SDS011;46289;51.992;4.498;2023-07-31T06:35:00;4.70;;;2.03;;
60436;SDS011;46289;51.992;4.498;2023-07-31T06:37:05;5.00;;;2.55;;
60436;SDS011;46289;51.992;4.498;2023-07-31T06:39:10;6.72;;;2.35;;
60436;SDS011;46289;51.992;4.498;2023-07-31T06:41:18;6.22;;;2.25;;
60436;SDS011;46289;51.992;4.498;2023-07-31T06:43:25;3.75;;;2.10;;
60436;SDS011;46289;51.992;4.498;2023-07-31T06:45:30;5.85;;;2.45;;
60436;SDS011;46289;51.992;4.498;2023-07-31T06:47:36;4.70;;;2.17;;
60436;SDS011;46289;51.992;4.498;2023-07-31T06:49:41;4.22;;;2.28;;
60436;SDS011;46289;51.992;4.498;2023-07-31T06:51:44;5.68;;;2.70;;
60436;SDS011;46289;51.992;4.498;2023-07-31T06:53:49;4.55;;;2.05;;
60436;SDS011;46289;51.992;4.498;2023-07-31T06:55:55;6.18;;;2.20;;
60436;SDS011;46289;51.992;4.498;2023-07-31T06:57:58;4.90;;;1.90;;
60436;SDS011;46289;51.992;4.498;2023-07-31T07:00:07;2.80;;;1.75;;
60436;SDS011;46289;51.992;4.498;2023-07-31T07:02:13;3.03;;;1.70;;
60436;SDS011;46289;51.992;4.498;2023-07-31T07:04:21;5.10;;;1.98;;
60436;SDS011;46289;51.992;4.498;2023-07-31T07:06:29;3.63;;;1.75;;
60436;SDS011;46289;51.992;4.498;2023-07-31T07:08:34;5.40;;;2.00;;
60436;SDS011;46289;51.992;4.498;2023-07-31T07:10:40;4.68;;;2.20;;
60436;SDS011;46289;51.992;4.498;2023-07-31T07:12:46;5.07;;;1.90;;
60436;SDS011;46289;51.992;4.498;2023-07-31T07:14:51;2.80;;;1.80;;
60436;SDS011;46289;51.992;4.498;2023-07-31T07:17:00;4.05;;;1.90;;
60436;SDS011;46289;51.992;4.498;2023-07-31T07:19:05;3.95;;;2.08;;
60436;SDS011;46289;51.992;4.498;2023-07-31T07:21:10;5.10;;;1.90;;
60436;SDS011;46289;51.992;4.498;2023-07-31T07:23:17;2.60;;;1.70;;
60436;SDS011;46289;51.992;4.498;2023-07-31T07:25:23;5.10;;;2.15;;
60436;SDS011;46289;51.992;4.498;2023-07-31T07:27:28;2.85;;;2.00;;
60436;SDS011;46289;51.992;4.498;2023-07-31T07:29:34;3.10;;;1.70;;
60436;SDS011;46289;51.992;4.498;2023-07-31T07:31:39;3.38;;;1.85;;
60436;SDS011;46289;51.992;4.498;2023-07-31T07:33:47;3.97;;;1.80;;
60436;SDS011;46289;51.992;4.498;2023-07-31T07:35:52;3.25;;;1.70;;
60436;SDS011;46289;51.992;4.498;2023-07-31T07:37:58;5.65;;;1.75;;
60436;SDS011;46289;51.992;4.498;2023-07-31T07:40:04;2.70;;;1.60;;
60436;SDS011;46289;51.992;4.498;2023-07-31T07:42:10;4.07;;;1.83;;
60436;SDS011;46289;51.992;4.498;2023-07-31T07:44:16;3.50;;;1.30;;
60436;SDS011;46289;51.992;4.498;2023-07-31T07:46:21;3.30;;;1.73;;
60436;SDS011;46289;51.992;4.498;2023-07-31T07:48:26;2.72;;;1.30;;
60436;SDS011;46289;51.992;4.498;2023-07-31T07:50:34;2.40;;;1.40;;
60436;SDS011;46289;51.992;4.498;2023-07-31T07:52:39;2.50;;;1.45;;
60436;SDS011;46289;51.992;4.498;2023-07-31T07:54:44;1.33;;;1.02;;
60436;SDS011;46289;51.992;4.498;2023-07-31T07:56:50;2.30;;;1.40;;
60436;SDS011;46289;51.992;4.498;2023-07-31T07:58:55;2.65;;;1.30;;
60436;SDS011;46289;51.992;4.498;2023-07-31T08:01:00;2.35;;;1.30;;
60436;SDS011;46289;51.992;4.498;2023-07-31T08:03:05;2.20;;;1.23;;
60436;SDS011;46289;51.992;4.498;2023-07-31T08:05:11;1.13;;;0.75;;
60436;SDS011;46289;51.992;4.498;2023-07-31T08:07:22;3.10;;;1.38;;
60436;SDS011;46289;51.992;4.498;2023-07-31T08:09:27;1.58;;;1.02;;
60436;SDS011;46289;51.992;4.498;2023-07-31T08:11:33;2.30;;;1.48;;
60436;SDS011;46289;51.992;4.498;2023-07-31T08:13:39;3.22;;;1.20;;
60436;SDS011;46289;51.992;4.498;2023-07-31T08:15:48;4.75;;;1.52;;
60436;SDS011;46289;51.992;4.498;2023-07-31T08:17:50;4.25;;;1.50;;
60436;SDS011;46289;51.992;4.498;2023-07-31T08:19:57;2.50;;;1.55;;
60436;SDS011;46289;51.992;4.498;2023-07-31T08:22:05;2.08;;;1.60;;
60436;SDS011;46289;51.992;4.498;2023-07-31T08:24:14;2.47;;;1.50;;
60436;SDS011;46289;51.992;4.498;2023-07-31T08:26:19;2.25;;;1.70;;
60436;SDS011;46289;51.992;4.498;2023-07-31T08:28:22;2.63;;;1.85;;
60436;SDS011;46289;51.992;4.498;2023-07-31T08:30:28;3.17;;;2.30;;
60436;SDS011;46289;51.992;4.498;2023-07-31T08:32:33;6.40;;;2.10;;
60436;SDS011;46289;51.992;4.498;2023-07-31T08:34:38;1.98;;;1.48;;
60436;SDS011;46289;51.992;4.498;2023-07-31T08:36:46;4.82;;;1.92;;
60436;SDS011;46289;51.992;4.498;2023-07-31T08:38:51;2.35;;;1.60;;
60436;SDS011;46289;51.992;4.498;2023-07-31T08:40:59;3.22;;;1.90;;
60436;SDS011;46289;51.992;4.498;2023-07-31T08:43:04;5.93;;;2.03;;
60436;SDS011;46289;51.992;4.498;2023-07-31T08:45:10;1.83;;;1.60;;
60436;SDS011;46289;51.992;4.498;2023-07-31T08:47:19;3.55;;;1.80;;
60436;SDS011;46289;51.992;4.498;2023-07-31T08:49:26;3.38;;;1.80;;
60436;SDS011;46289;51.992;4.498;2023-07-31T08:51:33;4.97;;;2.33;;
60436;SDS011;46289;51.992;4.498;2023-07-31T08:53:36;5.32;;;2.28;;
60436;SDS011;46289;51.992;4.498;2023-07-31T08:55:41;6.15;;;2.45;;
60436;SDS011;46289;51.992;4.498;2023-07-31T08:57:48;7.55;;;2.60;;
60436;SDS011;46289;51.992;4.498;2023-07-31T08:59:56;3.88;;;2.50;;
60436;SDS011;46289;51.992;4.498;2023-07-31T09:02:06;6.60;;;2.72;;
60436;SDS011;46289;51.992;4.498;2023-07-31T09:04:13;7.55;;;2.80;;
60436;SDS011;46289;51.992;4.498;2023-07-31T09:06:20;5.97;;;2.67;;
60436;SDS011;46289;51.992;4.498;2023-07-31T09:08:37;6.43;;;2.60;;
60436;SDS011;46289;51.992;4.498;2023-07-31T09:10:44;8.23;;;3.00;;
60436;SDS011;46289;51.992;4.498;2023-07-31T09:12:54;10.52;;;3.38;;
60436;SDS011;46289;51.992;4.498;2023-07-31T09:15:00;7.22;;;3.20;;
60436;SDS011;46289;51.992;4.498;2023-07-31T09:17:06;8.82;;;3.80;;
60436;SDS011;46289;51.992;4.498;2023-07-31T09:19:11;10.00;;;3.75;;
60436;SDS011;46289;51.992;4.498;2023-07-31T09:21:16;7.85;;;3.72;;
60436;SDS011;46289;51.992;4.498;2023-07-31T09:23:22;6.40;;;3.28;;
60436;SDS011;46289;51.992;4.498;2023-07-31T09:25:29;6.20;;;3.08;;
60436;SDS011;46289;51.992;4.498;2023-07-31T09:27:46;8.43;;;3.42;;
60436;SDS011;46289;51.992;4.498;2023-07-31T09:30:00;6.57;;;3.03;;
60436;SDS011;46289;51.992;4.498;2023-07-31T09:32:06;6.00;;;3.20;;
60436;SDS011;46289;51.992;4.498;2023-07-31T09:34:28;6.55;;;2.88;;
60436;SDS011;46289;51.992;4.498;2023-07-31T09:36:40;8.45;;;3.53;;
60436;SDS011;46289;51.992;4.498;2023-07-31T09:38:43;8.30;;;2.88;;
60436;SDS011;46289;51.992;4.498;2023-07-31T09:40:48;4.50;;;2.70;;
60436;SDS011;46289;51.992;4.498;2023-07-31T09:42:54;3.33;;;2.28;;
60436;SDS011;46289;51.992;4.498;2023-07-31T09:45:09;2.63;;;1.90;;
60436;SDS011;46289;51.992;4.498;2023-07-31T09:47:22;5.45;;;2.35;;
60436;SDS011;46289;51.992;4.498;2023-07-31T09:49:28;6.57;;;2.60;;
60436;SDS011;46289;51.992;4.498;2023-07-31T09:51:33;5.97;;;2.38;;
60436;SDS011;46289;51.992;4.498;2023-07-31T09:53:49;8.07;;;2.75;;
60436;SDS011;46289;51.992;4.498;2023-07-31T09:55:55;6.07;;;2.58;;
60436;SDS011;46289;51.992;4.498;2023-07-31T09:58:06;5.20;;;2.15;;
60436;SDS011;46289;51.992;4.498;2023-07-31T10:00:16;4.72;;;2.35;;
60436;SDS011;46289;51.992;4.498;2023-07-31T10:02:26;7.97;;;2.42;;
60436;SDS011;46289;51.992;4.498;2023-07-31T10:04:33;7.30;;;2.53;;
60436;SDS011;46289;51.992;4.498;2023-07-31T10:06:42;6.93;;;2.55;;
60436;SDS011;46289;51.992;4.498;2023-07-31T10:08:50;4.78;;;2.55;;
60436;SDS011;46289;51.992;4.498;2023-07-31T10:10:58;5.32;;;2.20;;
60436;SDS011;46289;51.992;4.498;2023-07-31T10:13:05;4.93;;;2.20;;
60436;SDS011;46289;51.992;4.498;2023-07-31T10:15:11;8.27;;;2.83;;
60436;SDS011;46289;51.992;4.498;2023-07-31T10:19:22;3.65;;;1.98;;
60436;SDS011;46289;51.992;4.498;2023-07-31T10:21:28;8.05;;;2.78;;
60436;SDS011;46289;51.992;4.498;2023-07-31T10:23:36;8.80;;;2.72;;
60436;SDS011;46289;51.992;4.498;2023-07-31T10:25:42;8.70;;;2.80;;
60436;SDS011;46289;51.992;4.498;2023-07-31T10:27:52;7.05;;;2.58;;
60436;SDS011;46289;51.992;4.498;2023-07-31T10:29:58;9.55;;;2.90;;
60436;SDS011;46289;51.992;4.498;2023-07-31T10:32:02;8.80;;;3.42;;
60436;SDS011;46289;51.992;4.498;2023-07-31T10:34:13;9.50;;;2.97;;
60436;SDS011;46289;51.992;4.498;2023-07-31T10:36:20;12.38;;;3.00;;
60436;SDS011;46289;51.992;4.498;2023-07-31T10:38:30;7.10;;;3.15;;
60436;SDS011;46289;51.992;4.498;2023-07-31T10:40:35;8.45;;;3.85;;
60436;SDS011;46289;51.992;4.498;2023-07-31T10:42:45;10.00;;;3.00;;
60436;SDS011;46289;51.992;4.498;2023-07-31T10:44:49;5.45;;;2.40;;
60436;SDS011;46289;51.992;4.498;2023-07-31T10:46:54;7.60;;;2.50;;
60436;SDS011;46289;51.992;4.498;2023-07-31T10:49:01;4.97;;;2.38;;
60436;SDS011;46289;51.992;4.498;2023-07-31T10:51:10;9.05;;;2.70;;
60436;SDS011;46289;51.992;4.498;2023-07-31T10:53:27;11.13;;;3.67;;
60436;SDS011;46289;51.992;4.498;2023-07-31T10:55:38;10.25;;;2.85;;
60436;SDS011;46289;51.992;4.498;2023-07-31T10:57:47;8.95;;;3.05;;
60436;SDS011;46289;51.992;4.498;2023-07-31T10:59:50;8.00;;;2.45;;
60436;SDS011;46289;51.992;4.498;2023-07-31T11:01:55;9.52;;;2.63;;
60436;SDS011;46289;51.992;4.498;2023-07-31T11:04:07;6.82;;;2.17;;
60436;SDS011;46289;51.992;4.498;2023-07-31T11:06:19;5.30;;;2.45;;
60436;SDS011;46289;51.992;4.498;2023-07-31T11:08:27;4.82;;;2.58;;
60436;SDS011;46289;51.992;4.498;2023-07-31T11:10:33;7.63;;;2.58;;
60436;SDS011;46289;51.992;4.498;2023-07-31T11:12:41;7.68;;;2.58;;
60436;SDS011;46289;51.992;4.498;2023-07-31T11:14:53;6.38;;;2.33;;
60436;SDS011;46289;51.992;4.498;2023-07-31T11:16:59;10.50;;;2.50;;
60436;SDS011;46289;51.992;4.498;2023-07-31T11:19:10;7.57;;;2.20;;
60436;SDS011;46289;51.992;4.498;2023-07-31T11:21:19;6.85;;;2.30;;
60436;SDS011;46289;51.992;4.498;2023-07-31T11:23:29;8.25;;;2.85;;
60436;SDS011;46289;51.992;4.498;2023-07-31T11:25:35;10.35;;;2.55;;
60436;SDS011;46289;51.992;4.498;2023-07-31T11:27:43;5.80;;;2.65;;
60436;SDS011;46289;51.992;4.498;2023-07-31T11:29:47;10.95;;;2.78;;
60436;SDS011;46289;51.992;4.498;2023-07-31T11:31:55;6.80;;;2.50;;
60436;SDS011;46289;51.992;4.498;2023-07-31T11:34:06;9.23;;;2.47;;
60436;SDS011;46289;51.992;4.498;2023-07-31T11:36:19;7.53;;;3.28;;
60436;SDS011;46289;51.992;4.498;2023-07-31T11:38:26;8.00;;;2.97;;
60436;SDS011;46289;51.992;4.498;2023-07-31T11:40:40;8.68;;;2.88;;
60436;SDS011;46289;51.992;4.498;2023-07-31T11:42:47;10.07;;;2.85;;
60436;SDS011;46289;51.992;4.498;2023-07-31T11:44:52;9.43;;;3.70;;
60436;SDS011;46289;51.992;4.498;2023-07-31T11:46:58;10.45;;;3.58;;
60436;SDS011;46289;51.992;4.498;2023-07-31T11:49:05;6.90;;;4.05;;
60436;SDS011;46289;51.992;4.498;2023-07-31T11:51:11;8.50;;;3.17;;
60436;SDS011;46289;51.992;4.498;2023-07-31T11:53:22;8.40;;;3.08;;
60436;SDS011;46289;51.992;4.498;2023-07-31T11:55:32;9.63;;;3.00;;
60436;SDS011;46289;51.992;4.498;2023-07-31T11:57:39;6.55;;;3.22;;
60436;SDS011;46289;51.992;4.498;2023-07-31T11:59:46;9.07;;;3.10;;
60436;SDS011;46289;51.992;4.498;2023-07-31T12:01:51;5.88;;;2.70;;
60436;SDS011;46289;51.992;4.498;2023-07-31T12:04:00;7.38;;;3.05;;
60436;SDS011;46289;51.992;4.498;2023-07-31T12:06:05;7.82;;;3.20;;
60436;SDS011;46289;51.992;4.498;2023-07-31T12:08:14;7.43;;;2.78;;
60436;SDS011;46289;51.992;4.498;2023-07-31T12:10:25;6.15;;;2.58;;
60436;SDS011;46289;51.992;4.498;2023-07-31T12:12:35;6.05;;;2.92;;
60436;SDS011;46289;51.992;4.498;2023-07-31T12:14:41;10.00;;;3.42;;
60436;SDS011;46289;51.992;4.498;2023-07-31T12:16:47;10.23;;;3.08;;
60436;SDS011;46289;51.992;4.498;2023-07-31T12:19:00;9.43;;;3.30;;
60436;SDS011;46289;51.992;4.498;2023-07-31T12:21:06;7.90;;;3.10;;
60436;SDS011;46289;51.992;4.498;2023-07-31T12:23:17;7.18;;;3.00;;
60436;SDS011;46289;51.992;4.498;2023-07-31T12:27:44;7.00;;;2.92;;
60436;SDS011;46289;51.992;4.498;2023-07-31T12:29:47;10.75;;;3.50;;
60436;SDS011;46289;51.992;4.498;2023-07-31T12:31:52;5.80;;;2.78;;
60436;SDS011;46289;51.992;4.498;2023-07-31T12:33:57;8.07;;;2.83;;
60436;SDS011;46289;51.992;4.498;2023-07-31T12:36:06;8.30;;;3.40;;
60436;SDS011;46289;51.992;4.498;2023-07-31T12:38:13;7.45;;;3.13;;
60436;SDS011;46289;51.992;4.498;2023-07-31T12:40:19;7.22;;;3.30;;
60436;SDS011;46289;51.992;4.498;2023-07-31T12:42:36;7.53;;;2.90;;
60436;SDS011;46289;51.992;4.498;2023-07-31T12:44:41;6.38;;;2.85;;
60436;SDS011;46289;51.992;4.498;2023-07-31T12:46:50;9.85;;;3.50;;
60436;SDS011;46289;51.992;4.498;2023-07-31T12:48:55;7.90;;;3.40;;